메인 페이지
METAR-TAF:

METAR-TAF

공항 :

지부티, 지부티

위도: 11-33N, 경도: 043-10E, 고도: 49m

현재 날씨관측

예보는 2 시간 25분 전, 17:00시(UTC)에 발표되었습니다.
온도 32°C
습도 75%
기압 1006 hPa
시정 10km 이상
1500m 미만 상공 구름 및 적란운 없음

METAR: HDAM 201700Z 020/02KT CAVOK 32/27 Q1006

시각: 22:25 (19:25 UTC)

예보

예보는 2 시간 25분 전, 17:00시(UTC)에 발표되었습니다.
예보 대상 시간: 20일 18시부터 21일 18시까지 (UTC)
여러 방향의 바람 3kt
시정 10km 이상
고도 2000ft 상공 구름 보통
전환 중
21일 00시부터 21일 06시까지 (UTC)
kt
고도 2300ft 상공 구름 조금
전환 중
21일 06시부터 21일 12시까지 (UTC)
10kt
고도 2300ft 상공 구름 조금
전환 중
21일 12시부터 21일 15시까지 (UTC)
고도 3000ft 상공 구름 조금, 적란운.

TAF: HDAM 201700Z 2018/2118 VRB03KT 9999 SCT020 BECMG 2100/2106 00000KT FEW023 BECMG 2106/2112 08010KT FEW023 BECMG 2112/2115 FEW030CB

4,000개 이상의 공항 관측 자료 및 예보 (METAR 및 TAF 보고).

지도상에서 검색 가능한 기상관측소가 노란 점과 빨간 점으로 표시되어 있습니다.

기상관측소 명을 보려면 표시 위로 마우스를 이동하세요.

날씨 관측과 예보를 보려면 클릭하세요.

지도 변경 : 확대하려면 엑스 표시가 있는 녹색 버튼, 축소하려면 빼기 표시가 있는 녹색 버튼, 다음 페이지의 지도를 보려면 녹색 화살표를 클릭하세요.


METAR-TAF: